KSUE/SUE METAR and TAF weather

Enter ICAO airport designator
Station Type Date Time Source
KSUE METAR 2021/05/15 01:56 UTC NOAA

KSUE 150156Z AUTO 19007KT 10SM CLR 14/00 A3020 RMK AO2 SLP225 T01440000 $


Station Type Date Time Source
KSUE Decoded METAR 2021/05/15 01:56 UTC NOAA

Sturgeon Bay, WI, United States (KSUE) 44-51N 087-25W
May 14, 2021 - 09:56 PM EDT / 2021.05.15 0156 UTC
Wind: from the S (190 degrees) at 8 MPH (7 KT):0
Visibility: 10 mile(s):0
Sky conditions: clear
Temperature: 57.9 F (14.4 C)
Dew Point: 32.0 F (0.0 C)
Relative Humidity: 37%
Pressure (altimeter): 30.2 in. Hg (1022 hPa)
ob: KSUE 150156Z AUTO 19007KT 10SM CLR 14/00 A3020 RMK AO2 SLP225 T01440000
cycle: 2

Station Type Date Time Source
KSUE TAF UTC NOAA

Error!

Example: see airport list